sensor_id;sensor_type;location;lat;lon;timestamp;P1;durP1;ratioP1;P2;durP2;ratioP2
72547;SDS011;60570;50.848;6.776;2022-12-05T00:00:36;13.35;;;6.80;;
72547;SDS011;60570;50.848;6.776;2022-12-05T00:01:41;13.13;;;7.18;;
72547;SDS011;60570;50.848;6.776;2022-12-05T00:02:42;13.82;;;6.80;;
72547;SDS011;60570;50.848;6.776;2022-12-05T00:03:43;14.82;;;6.70;;
72547;SDS011;60570;50.848;6.776;2022-12-05T00:04:45;14.35;;;6.63;;
72547;SDS011;60570;50.848;6.776;2022-12-05T00:05:45;15.05;;;7.10;;
72547;SDS011;60570;50.848;6.776;2022-12-05T00:06:46;13.05;;;6.85;;
72547;SDS011;60570;50.848;6.776;2022-12-05T00:07:46;14.18;;;5.95;;
72547;SDS011;60570;50.848;6.776;2022-12-05T00:08:47;13.77;;;6.53;;
72547;SDS011;60570;50.848;6.776;2022-12-05T00:09:48;14.40;;;6.53;;
72547;SDS011;60570;50.848;6.776;2022-12-05T00:10:48;13.30;;;6.72;;
72547;SDS011;60570;50.848;6.776;2022-12-05T00:11:48;16.27;;;6.65;;
72547;SDS011;60570;50.848;6.776;2022-12-05T00:12:49;13.32;;;7.05;;
72547;SDS011;60570;50.848;6.776;2022-12-05T00:13:50;14.82;;;6.97;;
72547;SDS011;60570;50.848;6.776;2022-12-05T00:14:52;12.20;;;6.00;;
72547;SDS011;60570;50.848;6.776;2022-12-05T00:15:52;13.93;;;6.57;;
72547;SDS011;60570;50.848;6.776;2022-12-05T00:16:53;14.25;;;7.53;;
72547;SDS011;60570;50.848;6.776;2022-12-05T00:17:53;14.93;;;6.72;;
72547;SDS011;60570;50.848;6.776;2022-12-05T00:18:53;14.07;;;7.10;;
72547;SDS011;60570;50.848;6.776;2022-12-05T00:19:55;16.10;;;6.72;;
72547;SDS011;60570;50.848;6.776;2022-12-05T00:20:55;12.93;;;6.43;;
72547;SDS011;60570;50.848;6.776;2022-12-05T00:21:55;13.70;;;7.05;;
72547;SDS011;60570;50.848;6.776;2022-12-05T00:22:56;13.23;;;7.13;;
72547;SDS011;60570;50.848;6.776;2022-12-05T00:23:57;13.95;;;6.82;;
72547;SDS011;60570;50.848;6.776;2022-12-05T00:24:59;12.73;;;6.63;;
72547;SDS011;60570;50.848;6.776;2022-12-05T00:26:03;14.27;;;6.93;;
72547;SDS011;60570;50.848;6.776;2022-12-05T00:27:04;13.57;;;6.70;;
72547;SDS011;60570;50.848;6.776;2022-12-05T00:28:04;15.18;;;6.63;;
72547;SDS011;60570;50.848;6.776;2022-12-05T00:29:05;13.30;;;6.30;;
72547;SDS011;60570;50.848;6.776;2022-12-05T00:30:05;14.25;;;7.45;;
72547;SDS011;60570;50.848;6.776;2022-12-05T00:31:10;16.73;;;7.50;;
72547;SDS011;60570;50.848;6.776;2022-12-05T00:32:13;14.93;;;7.13;;
72547;SDS011;60570;50.848;6.776;2022-12-05T00:33:13;13.45;;;6.82;;
72547;SDS011;60570;50.848;6.776;2022-12-05T00:34:13;14.90;;;7.32;;
72547;SDS011;60570;50.848;6.776;2022-12-05T00:35:14;13.40;;;6.65;;
72547;SDS011;60570;50.848;6.776;2022-12-05T00:36:16;14.00;;;7.00;;
72547;SDS011;60570;50.848;6.776;2022-12-05T00:37:21;15.38;;;6.43;;
72547;SDS011;60570;50.848;6.776;2022-12-05T00:38:21;13.27;;;7.47;;
72547;SDS011;60570;50.848;6.776;2022-12-05T00:39:22;11.50;;;6.22;;
72547;SDS011;60570;50.848;6.776;2022-12-05T00:40:22;15.07;;;7.03;;
72547;SDS011;60570;50.848;6.776;2022-12-05T00:41:24;13.95;;;7.68;;
72547;SDS011;60570;50.848;6.776;2022-12-05T00:42:26;14.50;;;7.05;;
72547;SDS011;60570;50.848;6.776;2022-12-05T00:43:26;15.70;;;7.70;;
72547;SDS011;60570;50.848;6.776;2022-12-05T00:44:26;13.65;;;7.70;;
72547;SDS011;60570;50.848;6.776;2022-12-05T00:45:27;13.18;;;7.22;;
72547;SDS011;60570;50.848;6.776;2022-12-05T00:46:28;14.55;;;7.60;;
72547;SDS011;60570;50.848;6.776;2022-12-05T00:47:33;15.23;;;8.15;;
72547;SDS011;60570;50.848;6.776;2022-12-05T00:48:35;13.05;;;7.45;;
72547;SDS011;60570;50.848;6.776;2022-12-05T00:49:36;14.15;;;7.32;;
72547;SDS011;60570;50.848;6.776;2022-12-05T00:50:36;16.35;;;7.40;;
72547;SDS011;60570;50.848;6.776;2022-12-05T00:51:37;14.85;;;7.60;;
72547;SDS011;60570;50.848;6.776;2022-12-05T00:52:40;14.80;;;7.28;;
72547;SDS011;60570;50.848;6.776;2022-12-05T00:53:40;14.60;;;8.15;;
72547;SDS011;60570;50.848;6.776;2022-12-05T00:54:42;13.65;;;7.05;;
72547;SDS011;60570;50.848;6.776;2022-12-05T00:55:42;16.50;;;7.47;;
72547;SDS011;60570;50.848;6.776;2022-12-05T00:56:43;16.33;;;8.13;;
72547;SDS011;60570;50.848;6.776;2022-12-05T00:57:44;19.20;;;8.65;;
72547;SDS011;60570;50.848;6.776;2022-12-05T00:58:45;14.57;;;8.18;;
72547;SDS011;60570;50.848;6.776;2022-12-05T00:59:45;17.33;;;8.10;;
72547;SDS011;60570;50.848;6.776;2022-12-05T01:00:46;17.23;;;8.13;;
72547;SDS011;60570;50.848;6.776;2022-12-05T01:01:47;16.10;;;8.27;;
72547;SDS011;60570;50.848;6.776;2022-12-05T01:02:48;18.35;;;8.82;;
72547;SDS011;60570;50.848;6.776;2022-12-05T01:03:50;20.00;;;8.85;;
72547;SDS011;60570;50.848;6.776;2022-12-05T01:04:52;15.88;;;7.63;;
72547;SDS011;60570;50.848;6.776;2022-12-05T01:05:53;14.75;;;7.45;;
72547;SDS011;60570;50.848;6.776;2022-12-05T01:06:55;15.80;;;9.05;;
72547;SDS011;60570;50.848;6.776;2022-12-05T01:07:56;16.00;;;7.70;;
72547;SDS011;60570;50.848;6.776;2022-12-05T01:08:57;16.25;;;8.35;;
72547;SDS011;60570;50.848;6.776;2022-12-05T01:09:58;15.98;;;8.10;;
72547;SDS011;60570;50.848;6.776;2022-12-05T01:10:58;18.00;;;9.50;;
72547;SDS011;60570;50.848;6.776;2022-12-05T01:11:59;18.42;;;8.55;;
72547;SDS011;60570;50.848;6.776;2022-12-05T01:12:59;16.52;;;9.07;;
72547;SDS011;60570;50.848;6.776;2022-12-05T01:14:00;16.83;;;8.85;;
72547;SDS011;60570;50.848;6.776;2022-12-05T01:15:00;16.73;;;8.55;;
72547;SDS011;60570;50.848;6.776;2022-12-05T01:16:01;17.10;;;9.35;;
72547;SDS011;60570;50.848;6.776;2022-12-05T01:17:02;19.25;;;8.75;;
72547;SDS011;60570;50.848;6.776;2022-12-05T01:18:03;16.40;;;8.40;;
72547;SDS011;60570;50.848;6.776;2022-12-05T01:19:04;15.52;;;7.90;;
72547;SDS011;60570;50.848;6.776;2022-12-05T01:20:07;18.55;;;8.65;;
72547;SDS011;60570;50.848;6.776;2022-12-05T01:21:08;18.15;;;8.60;;
72547;SDS011;60570;50.848;6.776;2022-12-05T01:22:09;19.80;;;9.35;;
72547;SDS011;60570;50.848;6.776;2022-12-05T01:23:09;17.75;;;8.43;;
72547;SDS011;60570;50.848;6.776;2022-12-05T01:24:10;16.98;;;8.85;;
72547;SDS011;60570;50.848;6.776;2022-12-05T01:25:11;16.50;;;9.18;;
72547;SDS011;60570;50.848;6.776;2022-12-05T01:26:12;17.80;;;9.10;;
72547;SDS011;60570;50.848;6.776;2022-12-05T01:27:14;16.20;;;8.65;;
72547;SDS011;60570;50.848;6.776;2022-12-05T01:28:14;16.80;;;8.07;;
72547;SDS011;60570;50.848;6.776;2022-12-05T01:29:16;17.25;;;8.52;;
72547;SDS011;60570;50.848;6.776;2022-12-05T01:30:22;19.20;;;8.88;;
72547;SDS011;60570;50.848;6.776;2022-12-05T01:31:24;16.92;;;8.90;;
72547;SDS011;60570;50.848;6.776;2022-12-05T01:32:26;18.23;;;8.80;;
72547;SDS011;60570;50.848;6.776;2022-12-05T01:33:27;16.70;;;8.70;;
72547;SDS011;60570;50.848;6.776;2022-12-05T01:34:27;19.77;;;9.05;;
72547;SDS011;60570;50.848;6.776;2022-12-05T01:35:29;20.63;;;9.52;;
72547;SDS011;60570;50.848;6.776;2022-12-05T01:36:31;17.70;;;8.98;;
72547;SDS011;60570;50.848;6.776;2022-12-05T01:37:31;16.00;;;8.25;;
72547;SDS011;60570;50.848;6.776;2022-12-05T01:38:31;16.88;;;8.75;;
72547;SDS011;60570;50.848;6.776;2022-12-05T01:39:32;20.08;;;9.20;;
72547;SDS011;60570;50.848;6.776;2022-12-05T01:40:33;16.38;;;8.35;;
72547;SDS011;60570;50.848;6.776;2022-12-05T01:41:36;16.95;;;9.25;;
72547;SDS011;60570;50.848;6.776;2022-12-05T01:42:39;16.88;;;9.27;;
72547;SDS011;60570;50.848;6.776;2022-12-05T01:43:53;17.63;;;9.38;;
72547;SDS011;60570;50.848;6.776;2022-12-05T01:45:00;17.88;;;8.35;;
72547;SDS011;60570;50.848;6.776;2022-12-05T01:46:07;16.77;;;8.50;;
72547;SDS011;60570;50.848;6.776;2022-12-05T01:47:08;18.35;;;8.68;;
72547;SDS011;60570;50.848;6.776;2022-12-05T01:48:14;17.23;;;8.45;;
72547;SDS011;60570;50.848;6.776;2022-12-05T01:50:33;20.25;;;9.00;;
72547;SDS011;60570;50.848;6.776;2022-12-05T01:51:34;19.35;;;8.88;;
72547;SDS011;60570;50.848;6.776;2022-12-05T01:52:38;20.55;;;9.65;;
72547;SDS011;60570;50.848;6.776;2022-12-05T01:53:39;20.05;;;9.70;;
72547;SDS011;60570;50.848;6.776;2022-12-05T01:54:40;19.60;;;8.68;;
72547;SDS011;60570;50.848;6.776;2022-12-05T01:55:42;19.05;;;9.35;;
72547;SDS011;60570;50.848;6.776;2022-12-05T01:56:47;18.55;;;9.40;;
72547;SDS011;60570;50.848;6.776;2022-12-05T01:57:52;17.27;;;9.10;;
72547;SDS011;60570;50.848;6.776;2022-12-05T01:58:55;18.30;;;9.60;;
72547;SDS011;60570;50.848;6.776;2022-12-05T01:59:57;18.65;;;8.98;;
72547;SDS011;60570;50.848;6.776;2022-12-05T02:01:01;20.20;;;9.55;;
72547;SDS011;60570;50.848;6.776;2022-12-05T02:02:02;20.35;;;9.38;;
72547;SDS011;60570;50.848;6.776;2022-12-05T02:03:05;16.83;;;8.90;;
72547;SDS011;60570;50.848;6.776;2022-12-05T02:05:11;16.67;;;8.00;;
72547;SDS011;60570;50.848;6.776;2022-12-05T02:06:16;17.50;;;8.25;;
72547;SDS011;60570;50.848;6.776;2022-12-05T02:07:17;16.50;;;8.65;;
72547;SDS011;60570;50.848;6.776;2022-12-05T02:08:18;17.02;;;8.65;;
72547;SDS011;60570;50.848;6.776;2022-12-05T02:09:19;19.77;;;9.55;;
72547;SDS011;60570;50.848;6.776;2022-12-05T02:10:20;20.10;;;9.55;;
72547;SDS011;60570;50.848;6.776;2022-12-05T02:11:21;17.98;;;9.43;;
72547;SDS011;60570;50.848;6.776;2022-12-05T02:12:24;18.40;;;9.35;;
72547;SDS011;60570;50.848;6.776;2022-12-05T02:16:50;17.25;;;8.60;;
72547;SDS011;60570;50.848;6.776;2022-12-05T02:17:58;16.25;;;8.43;;
72547;SDS011;60570;50.848;6.776;2022-12-05T02:21:00;19.27;;;9.27;;
72547;SDS011;60570;50.848;6.776;2022-12-05T02:30:55;15.90;;;8.00;;
72547;SDS011;60570;50.848;6.776;2022-12-05T02:35:28;18.23;;;8.93;;
72547;SDS011;60570;50.848;6.776;2022-12-05T02:39:14;17.60;;;9.10;;
72547;SDS011;60570;50.848;6.776;2022-12-05T02:40:30;18.42;;;8.93;;
72547;SDS011;60570;50.848;6.776;2022-12-05T02:41:42;16.50;;;8.75;;
72547;SDS011;60570;50.848;6.776;2022-12-05T02:42:48;17.65;;;8.45;;
72547;SDS011;60570;50.848;6.776;2022-12-05T02:43:59;16.52;;;8.73;;
72547;SDS011;60570;50.848;6.776;2022-12-05T02:45:07;21.35;;;9.88;;
72547;SDS011;60570;50.848;6.776;2022-12-05T02:46:12;18.08;;;9.02;;
72547;SDS011;60570;50.848;6.776;2022-12-05T02:47:16;18.80;;;9.13;;
72547;SDS011;60570;50.848;6.776;2022-12-05T02:48:20;19.20;;;9.77;;
72547;SDS011;60570;50.848;6.776;2022-12-05T02:49:24;18.05;;;9.68;;
72547;SDS011;60570;50.848;6.776;2022-12-05T02:50:32;21.55;;;9.52;;
72547;SDS011;60570;50.848;6.776;2022-12-05T02:51:39;17.98;;;9.02;;
72547;SDS011;60570;50.848;6.776;2022-12-05T02:52:42;16.73;;;8.57;;
72547;SDS011;60570;50.848;6.776;2022-12-05T02:53:47;18.67;;;9.27;;
72547;SDS011;60570;50.848;6.776;2022-12-05T02:54:49;18.13;;;9.00;;
72547;SDS011;60570;50.848;6.776;2022-12-05T02:55:52;17.80;;;8.80;;
72547;SDS011;60570;50.848;6.776;2022-12-05T02:56:54;19.52;;;9.13;;
72547;SDS011;60570;50.848;6.776;2022-12-05T02:57:59;17.65;;;9.13;;
72547;SDS011;60570;50.848;6.776;2022-12-05T02:59:03;17.35;;;9.30;;
72547;SDS011;60570;50.848;6.776;2022-12-05T03:00:04;19.23;;;9.02;;
72547;SDS011;60570;50.848;6.776;2022-12-05T03:01:05;17.90;;;9.48;;
72547;SDS011;60570;50.848;6.776;2022-12-05T03:02:20;18.70;;;8.60;;
72547;SDS011;60570;50.848;6.776;2022-12-05T03:03:22;18.08;;;8.38;;
72547;SDS011;60570;50.848;6.776;2022-12-05T03:04:24;19.13;;;9.50;;
72547;SDS011;60570;50.848;6.776;2022-12-05T03:05:31;18.85;;;8.73;;
72547;SDS011;60570;50.848;6.776;2022-12-05T03:08:01;18.23;;;8.40;;
72547;SDS011;60570;50.848;6.776;2022-12-05T03:09:07;16.30;;;8.27;;
72547;SDS011;60570;50.848;6.776;2022-12-05T03:10:12;17.60;;;9.40;;
72547;SDS011;60570;50.848;6.776;2022-12-05T03:11:14;16.95;;;8.98;;
72547;SDS011;60570;50.848;6.776;2022-12-05T03:12:23;16.20;;;8.15;;
72547;SDS011;60570;50.848;6.776;2022-12-05T03:13:32;16.83;;;8.85;;
72547;SDS011;60570;50.848;6.776;2022-12-05T03:14:41;18.35;;;8.48;;
72547;SDS011;60570;50.848;6.776;2022-12-05T03:15:47;20.63;;;9.88;;
72547;SDS011;60570;50.848;6.776;2022-12-05T03:16:51;15.60;;;8.07;;
72547;SDS011;60570;50.848;6.776;2022-12-05T03:18:36;17.63;;;8.27;;
72547;SDS011;60570;50.848;6.776;2022-12-05T03:19:25;15.75;;;8.43;;
72547;SDS011;60570;50.848;6.776;2022-12-05T03:20:27;16.48;;;8.63;;
72547;SDS011;60570;50.848;6.776;2022-12-05T03:21:33;18.10;;;8.45;;
72547;SDS011;60570;50.848;6.776;2022-12-05T03:22:42;16.33;;;8.55;;
72547;SDS011;60570;50.848;6.776;2022-12-05T03:23:46;19.80;;;9.80;;
72547;SDS011;60570;50.848;6.776;2022-12-05T03:24:52;18.23;;;8.35;;
72547;SDS011;60570;50.848;6.776;2022-12-05T03:25:58;16.35;;;8.48;;
72547;SDS011;60570;50.848;6.776;2022-12-05T03:28:34;17.90;;;8.80;;
72547;SDS011;60570;50.848;6.776;2022-12-05T03:29:53;17.63;;;9.00;;
72547;SDS011;60570;50.848;6.776;2022-12-05T03:30:56;16.73;;;8.27;;
72547;SDS011;60570;50.848;6.776;2022-12-05T03:33:16;18.63;;;8.68;;
72547;SDS011;60570;50.848;6.776;2022-12-05T03:34:30;16.52;;;8.18;;
72547;SDS011;60570;50.848;6.776;2022-12-05T03:37:12;16.20;;;8.63;;
72547;SDS011;60570;50.848;6.776;2022-12-05T03:38:24;18.25;;;9.00;;
72547;SDS011;60570;50.848;6.776;2022-12-05T03:39:31;16.38;;;9.13;;
72547;SDS011;60570;50.848;6.776;2022-12-05T03:40:46;17.13;;;8.60;;
72547;SDS011;60570;50.848;6.776;2022-12-05T03:43:05;16.70;;;8.90;;
72547;SDS011;60570;50.848;6.776;2022-12-05T03:45:48;17.35;;;8.60;;
72547;SDS011;60570;50.848;6.776;2022-12-05T03:47:03;17.85;;;8.98;;
72547;SDS011;60570;50.848;6.776;2022-12-05T03:48:14;19.20;;;9.75;;
72547;SDS011;60570;50.848;6.776;2022-12-05T03:50:45;18.42;;;8.82;;
72547;SDS011;60570;50.848;6.776;2022-12-05T03:51:52;13.75;;;7.82;;
72547;SDS011;60570;50.848;6.776;2022-12-05T03:53:06;15.90;;;8.10;;
72547;SDS011;60570;50.848;6.776;2022-12-05T03:54:16;16.77;;;8.05;;
72547;SDS011;60570;50.848;6.776;2022-12-05T03:55:20;16.45;;;7.90;;
72547;SDS011;60570;50.848;6.776;2022-12-05T03:56:26;17.73;;;9.13;;
72547;SDS011;60570;50.848;6.776;2022-12-05T03:57:57;15.82;;;8.32;;
72547;SDS011;60570;50.848;6.776;2022-12-05T03:59:15;16.45;;;7.88;;
72547;SDS011;60570;50.848;6.776;2022-12-05T04:01:23;16.58;;;7.78;;
72547;SDS011;60570;50.848;6.776;2022-12-05T04:02:34;15.95;;;8.52;;
72547;SDS011;60570;50.848;6.776;2022-12-05T04:03:48;14.80;;;7.65;;
72547;SDS011;60570;50.848;6.776;2022-12-05T04:04:57;14.48;;;7.47;;
72547;SDS011;60570;50.848;6.776;2022-12-05T04:06:03;16.13;;;8.13;;
72547;SDS011;60570;50.848;6.776;2022-12-05T04:07:09;14.82;;;8.05;;
72547;SDS011;60570;50.848;6.776;2022-12-05T04:08:14;15.65;;;8.13;;
72547;SDS011;60570;50.848;6.776;2022-12-05T04:09:21;14.10;;;7.53;;
72547;SDS011;60570;50.848;6.776;2022-12-05T04:10:27;14.10;;;7.65;;
72547;SDS011;60570;50.848;6.776;2022-12-05T04:11:32;16.40;;;8.35;;
72547;SDS011;60570;50.848;6.776;2022-12-05T04:12:36;17.05;;;7.72;;
72547;SDS011;60570;50.848;6.776;2022-12-05T04:13:42;15.52;;;8.65;;
72547;SDS011;60570;50.848;6.776;2022-12-05T04:14:47;16.42;;;8.02;;
72547;SDS011;60570;50.848;6.776;2022-12-05T04:15:57;17.92;;;8.32;;
72547;SDS011;60570;50.848;6.776;2022-12-05T04:17:21;15.85;;;8.07;;
72547;SDS011;60570;50.848;6.776;2022-12-05T04:18:30;16.38;;;7.95;;
72547;SDS011;60570;50.848;6.776;2022-12-05T04:19:34;14.52;;;7.35;;
72547;SDS011;60570;50.848;6.776;2022-12-05T04:20:58;17.60;;;8.55;;
72547;SDS011;60570;50.848;6.776;2022-12-05T04:22:20;13.80;;;7.43;;
72547;SDS011;60570;50.848;6.776;2022-12-05T04:23:22;15.05;;;7.82;;
72547;SDS011;60570;50.848;6.776;2022-12-05T04:24:26;13.68;;;7.53;;
72547;SDS011;60570;50.848;6.776;2022-12-05T04:26:00;14.27;;;7.47;;
72547;SDS011;60570;50.848;6.776;2022-12-05T04:28:38;14.32;;;7.75;;
72547;SDS011;60570;50.848;6.776;2022-12-05T04:31:22;15.10;;;7.20;;
72547;SDS011;60570;50.848;6.776;2022-12-05T04:34:33;14.23;;;6.60;;
72547;SDS011;60570;50.848;6.776;2022-12-05T04:36:53;15.65;;;8.23;;
72547;SDS011;60570;50.848;6.776;2022-12-05T04:38:06;14.50;;;7.22;;
72547;SDS011;60570;50.848;6.776;2022-12-05T04:39:13;13.82;;;7.35;;
72547;SDS011;60570;50.848;6.776;2022-12-05T04:40:27;15.70;;;7.95;;
72547;SDS011;60570;50.848;6.776;2022-12-05T04:41:35;15.65;;;7.45;;
72547;SDS011;60570;50.848;6.776;2022-12-05T04:42:38;14.45;;;7.65;;
72547;SDS011;60570;50.848;6.776;2022-12-05T04:43:42;15.80;;;8.13;;
72547;SDS011;60570;50.848;6.776;2022-12-05T04:44:48;12.55;;;7.25;;
72547;SDS011;60570;50.848;6.776;2022-12-05T04:45:53;13.10;;;7.18;;
72547;SDS011;60570;50.848;6.776;2022-12-05T04:46:57;12.52;;;7.05;;
72547;SDS011;60570;50.848;6.776;2022-12-05T04:48:03;13.63;;;7.40;;
72547;SDS011;60570;50.848;6.776;2022-12-05T04:49:07;14.80;;;7.68;;
72547;SDS011;60570;50.848;6.776;2022-12-05T04:50:11;14.25;;;8.75;;
72547;SDS011;60570;50.848;6.776;2022-12-05T04:51:18;13.05;;;7.47;;
72547;SDS011;60570;50.848;6.776;2022-12-05T04:52:22;13.50;;;7.72;;
72547;SDS011;60570;50.848;6.776;2022-12-05T04:53:25;13.82;;;7.03;;
72547;SDS011;60570;50.848;6.776;2022-12-05T04:54:29;15.07;;;8.55;;
72547;SDS011;60570;50.848;6.776;2022-12-05T04:55:38;13.90;;;7.20;;
72547;SDS011;60570;50.848;6.776;2022-12-05T04:56:41;13.25;;;7.43;;
72547;SDS011;60570;50.848;6.776;2022-12-05T04:57:52;14.98;;;7.13;;
72547;SDS011;60570;50.848;6.776;2022-12-05T04:58:59;13.05;;;7.10;;
72547;SDS011;60570;50.848;6.776;2022-12-05T05:00:00;13.70;;;7.50;;
72547;SDS011;60570;50.848;6.776;2022-12-05T05:01:09;14.13;;;7.28;;
72547;SDS011;60570;50.848;6.776;2022-12-05T05:02:16;13.38;;;7.00;;
72547;SDS011;60570;50.848;6.776;2022-12-05T05:04:31;14.98;;;7.07;;
72547;SDS011;60570;50.848;6.776;2022-12-05T05:05:46;15.95;;;7.78;;
72547;SDS011;60570;50.848;6.776;2022-12-05T05:06:48;12.68;;;6.93;;
72547;SDS011;60570;50.848;6.776;2022-12-05T05:07:50;12.20;;;7.18;;
72547;SDS011;60570;50.848;6.776;2022-12-05T05:08:54;15.75;;;7.72;;
72547;SDS011;60570;50.848;6.776;2022-12-05T05:09:56;14.45;;;7.13;;
72547;SDS011;60570;50.848;6.776;2022-12-05T05:11:10;14.80;;;7.38;;
72547;SDS011;60570;50.848;6.776;2022-12-05T05:12:13;12.93;;;7.00;;
72547;SDS011;60570;50.848;6.776;2022-12-05T05:13:14;16.73;;;8.07;;
72547;SDS011;60570;50.848;6.776;2022-12-05T05:14:14;12.10;;;6.45;;
72547;SDS011;60570;50.848;6.776;2022-12-05T05:15:15;14.70;;;7.30;;
72547;SDS011;60570;50.848;6.776;2022-12-05T05:16:20;13.95;;;7.07;;
72547;SDS011;60570;50.848;6.776;2022-12-05T05:17:22;13.13;;;7.38;;
72547;SDS011;60570;50.848;6.776;2022-12-05T05:18:22;13.45;;;7.13;;
72547;SDS011;60570;50.848;6.776;2022-12-05T05:19:23;13.13;;;7.68;;
72547;SDS011;60570;50.848;6.776;2022-12-05T05:20:24;14.02;;;8.00;;
72547;SDS011;60570;50.848;6.776;2022-12-05T05:21:27;14.60;;;7.40;;
72547;SDS011;60570;50.848;6.776;2022-12-05T05:22:34;12.85;;;6.68;;
72547;SDS011;60570;50.848;6.776;2022-12-05T05:23:35;13.65;;;8.27;;
72547;SDS011;60570;50.848;6.776;2022-12-05T05:24:35;12.98;;;7.10;;
72547;SDS011;60570;50.848;6.776;2022-12-05T05:25:35;15.48;;;7.35;;
72547;SDS011;60570;50.848;6.776;2022-12-05T05:26:37;15.27;;;8.02;;
72547;SDS011;60570;50.848;6.776;2022-12-05T05:27:39;11.82;;;6.57;;
72547;SDS011;60570;50.848;6.776;2022-12-05T05:28:40;13.23;;;7.15;;
72547;SDS011;60570;50.848;6.776;2022-12-05T05:29:40;13.77;;;7.82;;
72547;SDS011;60570;50.848;6.776;2022-12-05T05:30:41;14.13;;;7.18;;
72547;SDS011;60570;50.848;6.776;2022-12-05T05:31:41;12.73;;;7.07;;
72547;SDS011;60570;50.848;6.776;2022-12-05T05:32:42;12.50;;;7.72;;
72547;SDS011;60570;50.848;6.776;2022-12-05T05:33:42;13.23;;;7.10;;
72547;SDS011;60570;50.848;6.776;2022-12-05T05:34:43;15.85;;;7.63;;
72547;SDS011;60570;50.848;6.776;2022-12-05T05:35:44;12.80;;;7.65;;
72547;SDS011;60570;50.848;6.776;2022-12-05T05:36:44;13.13;;;7.43;;
72547;SDS011;60570;50.848;6.776;2022-12-05T05:37:45;13.50;;;7.28;;
72547;SDS011;60570;50.848;6.776;2022-12-05T05:38:46;13.52;;;7.95;;
72547;SDS011;60570;50.848;6.776;2022-12-05T05:39:48;14.40;;;7.10;;
72547;SDS011;60570;50.848;6.776;2022-12-05T05:40:48;15.65;;;7.57;;
72547;SDS011;60570;50.848;6.776;2022-12-05T05:41:49;12.55;;;7.03;;
72547;SDS011;60570;50.848;6.776;2022-12-05T05:42:49;12.65;;;7.13;;
72547;SDS011;60570;50.848;6.776;2022-12-05T05:43:50;14.15;;;7.75;;
72547;SDS011;60570;50.848;6.776;2022-12-05T05:44:51;13.55;;;6.82;;
72547;SDS011;60570;50.848;6.776;2022-12-05T05:45:52;12.50;;;7.22;;
72547;SDS011;60570;50.848;6.776;2022-12-05T05:46:52;12.00;;;6.85;;
72547;SDS011;60570;50.848;6.776;2022-12-05T05:47:53;13.38;;;6.47;;
72547;SDS011;60570;50.848;6.776;2022-12-05T05:48:53;13.80;;;7.28;;
72547;SDS011;60570;50.848;6.776;2022-12-05T05:49:54;13.55;;;7.05;;
72547;SDS011;60570;50.848;6.776;2022-12-05T05:50:57;14.65;;;7.90;;
72547;SDS011;60570;50.848;6.776;2022-12-05T05:52:01;14.48;;;7.75;;
72547;SDS011;60570;50.848;6.776;2022-12-05T05:53:01;13.57;;;6.97;;
72547;SDS011;60570;50.848;6.776;2022-12-05T05:54:01;13.50;;;7.80;;
72547;SDS011;60570;50.848;6.776;2022-12-05T05:55:03;14.13;;;7.43;;
72547;SDS011;60570;50.848;6.776;2022-12-05T05:56:09;13.13;;;7.03;;
72547;SDS011;60570;50.848;6.776;2022-12-05T05:57:11;13.48;;;6.78;;
72547;SDS011;60570;50.848;6.776;2022-12-05T05:58:12;13.85;;;7.70;;
72547;SDS011;60570;50.848;6.776;2022-12-05T05:59:12;13.05;;;6.82;;
72547;SDS011;60570;50.848;6.776;2022-12-05T06:00:13;12.73;;;6.95;;
72547;SDS011;60570;50.848;6.776;2022-12-05T06:01:15;12.27;;;7.05;;
72547;SDS011;60570;50.848;6.776;2022-12-05T06:03:19;11.40;;;5.82;;
72547;SDS011;60570;50.848;6.776;2022-12-05T06:04:20;15.70;;;7.45;;
72547;SDS011;60570;50.848;6.776;2022-12-05T06:05:20;13.68;;;7.65;;
72547;SDS011;60570;50.848;6.776;2022-12-05T06:06:21;12.95;;;6.97;;
72547;SDS011;60570;50.848;6.776;2022-12-05T06:07:22;13.55;;;7.35;;
72547;SDS011;60570;50.848;6.776;2022-12-05T06:08:22;12.98;;;7.30;;
72547;SDS011;60570;50.848;6.776;2022-12-05T06:09:23;13.90;;;7.72;;
72547;SDS011;60570;50.848;6.776;2022-12-05T06:10:23;14.85;;;8.93;;
72547;SDS011;60570;50.848;6.776;2022-12-05T06:11:25;13.07;;;7.07;;
72547;SDS011;60570;50.848;6.776;2022-12-05T06:12:26;14.77;;;7.60;;
72547;SDS011;60570;50.848;6.776;2022-12-05T06:13:26;13.30;;;7.50;;
72547;SDS011;60570;50.848;6.776;2022-12-05T06:14:27;15.32;;;8.50;;
72547;SDS011;60570;50.848;6.776;2022-12-05T06:15:27;14.35;;;7.50;;
72547;SDS011;60570;50.848;6.776;2022-12-05T06:16:28;15.18;;;8.02;;
72547;SDS011;60570;50.848;6.776;2022-12-05T06:17:30;15.35;;;7.32;;
72547;SDS011;60570;50.848;6.776;2022-12-05T06:18:30;14.02;;;7.35;;
72547;SDS011;60570;50.848;6.776;2022-12-05T06:19:30;14.88;;;7.65;;
72547;SDS011;60570;50.848;6.776;2022-12-05T06:20:31;14.55;;;7.72;;
72547;SDS011;60570;50.848;6.776;2022-12-05T06:21:31;16.83;;;8.98;;
72547;SDS011;60570;50.848;6.776;2022-12-05T06:22:32;14.55;;;7.72;;
72547;SDS011;60570;50.848;6.776;2022-12-05T06:23:32;16.05;;;8.00;;
72547;SDS011;60570;50.848;6.776;2022-12-05T06:24:33;13.65;;;8.32;;
72547;SDS011;60570;50.848;6.776;2022-12-05T06:25:33;13.30;;;7.28;;
72547;SDS011;60570;50.848;6.776;2022-12-05T06:26:34;14.50;;;7.60;;
72547;SDS011;60570;50.848;6.776;2022-12-05T06:27:34;13.57;;;7.57;;
72547;SDS011;60570;50.848;6.776;2022-12-05T06:28:35;14.88;;;7.63;;
72547;SDS011;60570;50.848;6.776;2022-12-05T06:29:36;14.98;;;8.00;;
72547;SDS011;60570;50.848;6.776;2022-12-05T06:30:37;15.45;;;7.53;;
72547;SDS011;60570;50.848;6.776;2022-12-05T06:31:37;15.88;;;7.80;;
72547;SDS011;60570;50.848;6.776;2022-12-05T06:32:38;15.88;;;8.50;;
72547;SDS011;60570;50.848;6.776;2022-12-05T06:33:38;14.35;;;7.50;;
72547;SDS011;60570;50.848;6.776;2022-12-05T06:34:38;13.43;;;7.93;;
72547;SDS011;60570;50.848;6.776;2022-12-05T06:35:39;13.50;;;7.57;;
72547;SDS011;60570;50.848;6.776;2022-12-05T06:36:40;15.60;;;8.10;;
72547;SDS011;60570;50.848;6.776;2022-12-05T06:37:41;13.95;;;7.93;;
72547;SDS011;60570;50.848;6.776;2022-12-05T06:38:42;12.77;;;7.82;;
72547;SDS011;60570;50.848;6.776;2022-12-05T06:39:42;14.77;;;7.50;;
72547;SDS011;60570;50.848;6.776;2022-12-05T06:40:43;13.75;;;7.15;;
72547;SDS011;60570;50.848;6.776;2022-12-05T06:41:44;12.77;;;6.80;;
72547;SDS011;60570;50.848;6.776;2022-12-05T06:42:44;13.75;;;6.88;;
72547;SDS011;60570;50.848;6.776;2022-12-05T06:43:45;13.15;;;7.60;;
72547;SDS011;60570;50.848;6.776;2022-12-05T06:44:45;12.98;;;7.55;;
72547;SDS011;60570;50.848;6.776;2022-12-05T06:45:46;12.93;;;6.80;;
72547;SDS011;60570;50.848;6.776;2022-12-05T06:46:46;14.57;;;7.90;;
72547;SDS011;60570;50.848;6.776;2022-12-05T06:47:47;14.27;;;8.00;;
72547;SDS011;60570;50.848;6.776;2022-12-05T06:48:53;13.50;;;7.63;;
72547;SDS011;60570;50.848;6.776;2022-12-05T06:49:54;13.25;;;7.57;;
72547;SDS011;60570;50.848;6.776;2022-12-05T06:50:55;14.18;;;7.05;;
72547;SDS011;60570;50.848;6.776;2022-12-05T06:51:55;14.65;;;7.68;;
72547;SDS011;60570;50.848;6.776;2022-12-05T06:52:55;13.38;;;7.05;;
72547;SDS011;60570;50.848;6.776;2022-12-05T06:53:56;12.80;;;7.20;;
72547;SDS011;60570;50.848;6.776;2022-12-05T06:54:56;14.80;;;7.43;;
72547;SDS011;60570;50.848;6.776;2022-12-05T06:55:59;14.95;;;7.18;;
72547;SDS011;60570;50.848;6.776;2022-12-05T06:57:01;12.90;;;6.32;;
72547;SDS011;60570;50.848;6.776;2022-12-05T06:58:02;12.52;;;7.20;;
72547;SDS011;60570;50.848;6.776;2022-12-05T06:59:02;12.77;;;7.60;;